Time;durP1;ratioP1;P1;durP2;ratioP2;P2;SDS_P1;SDS_P2;PMS_P1;PMS_P2;Temp;Humidity;BMP_temperature;BMP_pressure;BME280_temperature;BME280_humidity;BME280_pressure;Samples;Min_cycle;Max_cycle;Signal;HPM_P1;HPM_P2
2021/05/20 00:00:46;;;;;;;18.92;13.77;;;9.80;92.20;;;;;;4974997;28;20096;-77
2021/05/20 00:03:12;;;;;;;18.30;13.77;;;9.70;92.10;;;;;;4967598;28;20034;-77
2021/05/20 00:05:37;;;;;;;18.08;12.95;;;9.50;91.60;;;;;;4984463;28;20052;-77
2021/05/20 00:08:03;;;;;;;14.85;11.23;;;9.60;92.50;;;;;;4996828;28;20343;-77
2021/05/20 00:10:29;;;;;;;18.38;12.90;;;9.70;92.20;;;;;;4978798;28;20023;-78
2021/05/20 00:12:55;;;;;;;19.15;12.85;;;9.70;92.60;;;;;;4965233;28;20101;-78
2021/05/20 00:15:20;;;;;;;14.98;10.18;;;9.60;92.30;;;;;;4991583;28;20385;-78
2021/05/20 00:17:46;;;;;;;14.80;9.80;;;9.60;92.40;;;;;;4999012;28;20026;-79
2021/05/20 00:20:11;;;;;;;19.52;14.93;;;9.60;92.30;;;;;;4976124;28;20034;-78
2021/05/20 00:22:37;;;;;;;20.15;14.77;;;9.40;92.00;;;;;;4968189;28;20080;-78
2021/05/20 00:25:03;;;;;;;18.90;14.68;;;9.20;92.30;;;;;;4977928;28;20485;-78
2021/05/20 00:27:29;;;;;;;13.60;9.73;;;9.40;93.00;;;;;;4973326;28;20026;-78
2021/05/20 00:29:55;;;;;;;16.10;13.05;;;9.40;92.80;;;;;;4980331;28;20539;-78
2021/05/20 00:32:20;;;;;;;16.02;12.73;;;9.40;92.10;;;;;;4980780;28;20460;-79
2021/05/20 00:34:46;;;;;;;11.10;9.25;;;9.40;92.50;;;;;;4997962;28;20042;-78
2021/05/20 00:37:11;;;;;;;15.80;12.55;;;9.40;92.50;;;;;;4979019;28;20038;-78
2021/05/20 00:39:37;;;;;;;21.55;17.85;;;9.10;92.30;;;;;;4968728;28;20034;-78
2021/05/20 00:42:09;;;;;;;14.48;10.75;;;9.10;92.50;;;;;;4989363;28;20118;-78
2021/05/20 00:44:51;;;;;;;10.93;9.35;;;9.20;92.90;;;;;;4997305;28;20117;-78
2021/05/20 00:47:23;;;;;;;23.17;17.85;;;9.30;92.90;;;;;;4981507;28;20033;-78
2021/05/20 00:49:48;;;;;;;21.65;16.30;;;9.20;92.10;;;;;;4968641;28;20089;-78
2021/05/20 00:52:14;;;;;;;24.05;18.30;;;9.10;92.50;;;;;;4980092;28;20448;-79
2021/05/20 00:54:40;;;;;;;15.10;11.60;;;9.10;92.70;;;;;;4976877;28;20046;-78
2021/05/20 00:57:05;;;;;;;14.35;10.15;;;9.00;93.10;;;;;;4992677;28;20045;-79
2021/05/20 00:59:31;;;;;;;18.27;14.00;;;9.20;93.00;;;;;;4967958;28;20039;-78
2021/05/20 01:01:57;;;;;;;17.23;13.10;;;9.10;92.80;;;;;;4976880;28;20046;-78
2021/05/20 01:04:22;;;;;;;20.42;16.45;;;9.10;93.10;;;;;;4994040;28;20046;-78
2021/05/20 01:06:48;;;;;;;18.33;15.10;;;9.10;93.00;;;;;;4964561;28;20065;-79
2021/05/20 01:09:13;;;;;;;22.73;17.40;;;9.10;93.10;;;;;;4972587;28;20509;-78
2021/05/20 01:11:40;;;;;;;18.20;12.57;;;8.90;92.90;;;;;;4996934;28;20034;-78
2021/05/20 01:14:10;;;;;;;24.00;18.00;;;8.90;93.60;;;;;;4997259;28;20036;-78
2021/05/20 01:16:36;;;;;;;20.23;13.43;;;9.00;92.80;;;;;;5000471;28;20130;-78
2021/05/20 01:19:02;;;;;;;14.88;12.18;;;9.00;93.70;;;;;;4980966;28;20109;-78
2021/05/20 01:21:28;;;;;;;18.23;14.52;;;9.00;93.60;;;;;;4993554;28;20494;-78
2021/05/20 01:23:53;;;;;;;12.35;10.35;;;9.10;93.40;;;;;;4998359;28;20097;-78
2021/05/20 01:26:19;;;;;;;21.13;15.68;;;9.10;93.40;;;;;;4978948;28;20100;-78
2021/05/20 01:28:44;;;;;;;18.02;13.20;;;9.00;93.50;;;;;;4983305;28;20031;-78
2021/05/20 01:31:10;;;;;;;15.48;11.73;;;9.00;93.50;;;;;;4980468;28;20129;-78
2021/05/20 01:33:35;;;;;;;16.48;13.13;;;9.00;93.80;;;;;;4967550;28;20374;-78
2021/05/20 01:36:01;;;;;;;17.30;13.80;;;9.00;93.90;;;;;;4984517;28;20405;-78
2021/05/20 01:41:06;;;;;;;21.92;17.25;;;8.80;93.60;;;;;;4983487;28;20393;-78
2021/05/20 01:43:32;;;;;;;21.02;15.90;;;8.70;93.50;;;;;;4969175;28;20458;-78
2021/05/20 01:45:58;;;;;;;29.23;20.65;;;8.90;93.70;;;;;;4985531;28;20296;-78
2021/05/20 01:48:27;;;;;;;33.67;20.52;;;9.00;93.30;;;;;;4965778;28;20076;-78
2021/05/20 01:50:53;;;;;;;21.45;13.68;;;8.90;93.20;;;;;;4997447;28;20595;-78
2021/05/20 01:53:18;;;;;;;32.35;19.13;;;8.90;93.60;;;;;;4982902;28;20041;-77
2021/05/20 01:55:47;;;;;;;22.02;14.40;;;9.00;93.90;;;;;;4985357;28;20514;-77
2021/05/20 01:58:12;;;;;;;24.33;14.57;;;9.20;93.50;;;;;;4995258;28;20445;-77
2021/05/20 02:00:38;;;;;;;38.47;21.17;;;9.30;93.60;;;;;;4980111;28;20026;-77
2021/05/20 02:03:04;;;;;;;24.90;14.63;;;9.30;93.90;;;;;;4984628;28;20034;-76
2021/05/20 02:05:29;;;;;;;33.85;15.52;;;9.40;93.80;;;;;;4998896;28;20072;-77
2021/05/20 02:07:55;;;;;;;37.30;19.05;;;9.30;93.70;;;;;;4997789;28;20498;-77
2021/05/20 02:10:20;;;;;;;46.20;22.15;;;9.20;93.60;;;;;;4982003;28;20107;-77
2021/05/20 02:12:46;;;;;;;35.40;17.48;;;9.20;93.90;;;;;;4995346;28;20045;-76
2021/05/20 02:15:11;;;;;;;29.85;16.42;;;9.20;93.70;;;;;;4997243;28;20029;-77
2021/05/20 02:17:37;;;;;;;57.40;27.55;;;9.40;93.40;;;;;;4981949;28;20064;-77
2021/05/20 02:20:07;;;;;;;40.67;19.98;;;9.40;93.80;;;;;;4968753;28;20041;-76
2021/05/20 02:22:33;;;;;;;38.05;19.27;;;9.50;93.80;;;;;;4976163;28;20041;-77
2021/05/20 02:24:58;;;;;;;55.50;27.45;;;9.50;93.90;;;;;;4994044;28;20042;-76
2021/05/20 02:27:24;;;;;;;56.22;26.90;;;9.60;93.80;;;;;;4979213;28;20045;-76
2021/05/20 02:29:49;;;;;;;46.33;21.80;;;9.40;93.80;;;;;;4968375;28;20050;-77
2021/05/20 02:32:15;;;;;;;51.03;24.95;;;9.50;93.60;;;;;;4981643;28;20041;-77
2021/05/20 02:34:40;;;;;;;39.92;17.45;;;9.50;93.50;;;;;;4985073;28;20038;-77
2021/05/20 02:37:06;;;;;;;35.28;17.50;;;9.50;93.50;;;;;;4995195;28;20034;-76
2021/05/20 02:39:32;;;;;;;74.97;33.22;;;9.70;93.50;;;;;;4981247;28;20448;-77
2021/05/20 02:41:58;;;;;;;44.58;21.05;;;9.60;93.60;;;;;;4969352;28;20052;-77
2021/05/20 02:44:24;;;;;;;73.38;30.35;;;9.50;93.40;;;;;;4981424;28;20031;-77
2021/05/20 02:46:50;;;;;;;62.67;28.70;;;9.60;93.70;;;;;;4962789;28;20062;-76
2021/05/20 02:49:15;;;;;;;37.45;17.30;;;9.60;93.50;;;;;;4991766;28;20064;-77
2021/05/20 02:51:41;;;;;;;38.80;17.98;;;9.60;93.30;;;;;;4963604;28;20034;-77
2021/05/20 02:54:06;;;;;;;47.25;22.85;;;9.60;93.30;;;;;;4988832;28;20085;-77
2021/05/20 02:56:32;;;;;;;70.78;30.95;;;9.70;93.60;;;;;;4982490;28;20034;-76
2021/05/20 02:58:57;;;;;;;51.28;22.45;;;9.70;93.30;;;;;;4966936;28;20026;-77
2021/05/20 03:01:24;;;;;;;71.60;33.22;;;9.60;93.30;;;;;;4996210;28;20440;-77
2021/05/20 03:03:49;;;;;;;54.58;25.48;;;9.50;93.30;;;;;;4978296;28;20037;-77
2021/05/20 03:06:15;;;;;;;35.40;19.27;;;9.60;93.50;;;;;;4993756;28;20030;-77
2021/05/20 03:08:40;;;;;;;46.17;22.65;;;9.80;93.30;;;;;;4985572;28;20076;-77
2021/05/20 03:11:06;;;;;;;48.70;23.77;;;9.70;93.50;;;;;;4966289;28;20030;-77
2021/05/20 03:13:31;;;;;;;49.58;21.48;;;9.60;93.50;;;;;;4977529;28;20026;-76
2021/05/20 03:15:57;;;;;;;49.13;22.52;;;9.70;93.60;;;;;;4995334;28;20038;-77
2021/05/20 03:18:22;;;;;;;36.88;17.52;;;9.80;93.70;;;;;;4977866;28;20367;-77
2021/05/20 03:20:48;;;;;;;46.45;21.27;;;9.80;93.20;;;;;;4981072;28;20030;-77
2021/05/20 03:23:13;;;;;;;40.85;19.40;;;9.80;93.50;;;;;;4965738;28;20062;-77
2021/05/20 03:25:39;;;;;;;44.08;21.88;;;9.80;93.40;;;;;;4969242;28;20052;-77
2021/05/20 03:28:04;;;;;;;44.80;20.63;;;9.70;93.40;;;;;;4964344;28;20456;-77
2021/05/20 03:30:30;;;;;;;46.28;21.13;;;9.70;93.60;;;;;;4962854;28;20030;-77
2021/05/20 03:32:55;;;;;;;58.05;26.48;;;9.70;93.50;;;;;;4964233;28;20045;-77
2021/05/20 03:35:21;;;;;;;67.57;27.15;;;9.80;93.80;;;;;;4994934;28;20038;-77
2021/05/20 03:37:46;;;;;;;69.97;30.83;;;9.60;93.50;;;;;;4979519;28;20050;-77
2021/05/20 03:40:12;;;;;;;57.22;25.58;;;9.60;93.50;;;;;;4964520;28;20325;-78
2021/05/20 03:42:37;;;;;;;64.20;26.05;;;9.50;93.50;;;;;;4969397;28;20117;-78
2021/05/20 03:45:06;;;;;;;55.13;24.70;;;9.60;93.80;;;;;;4963308;28;20044;-78
2021/05/20 03:47:32;;;;;;;53.83;22.63;;;9.60;93.50;;;;;;4969658;28;20244;-78
2021/05/20 03:49:57;;;;;;;41.95;20.13;;;9.60;93.30;;;;;;4965463;28;20545;-78
2021/05/20 03:52:23;;;;;;;45.47;20.38;;;9.70;93.40;;;;;;4991213;28;20038;-77
2021/05/20 03:54:48;;;;;;;69.93;30.05;;;9.70;93.00;;;;;;4977887;28;20030;-77
2021/05/20 03:57:14;;;;;;;55.33;23.27;;;9.60;93.30;;;;;;4976724;28;20112;-78
2021/05/20 03:59:39;;;;;;;54.50;24.88;;;9.50;93.20;;;;;;4985607;28;20026;-78
2021/05/20 04:02:05;;;;;;;68.10;29.23;;;9.60;93.40;;;;;;4979360;28;20038;-79
2021/05/20 04:04:31;;;;;;;44.60;20.90;;;9.60;93.50;;;;;;4979917;28;20027;-78
2021/05/20 04:06:56;;;;;;;61.88;25.90;;;9.70;93.30;;;;;;4988979;28;20036;-78
2021/05/20 04:09:22;;;;;;;48.05;21.48;;;9.80;93.50;;;;;;4980085;28;20386;-77
2021/05/20 04:11:47;;;;;;;62.70;28.00;;;9.80;93.70;;;;;;4978767;28;20037;-78
2021/05/20 04:14:13;;;;;;;51.08;22.73;;;9.70;93.50;;;;;;4977794;28;20114;-78
2021/05/20 04:16:38;;;;;;;66.60;28.73;;;9.60;93.40;;;;;;4969328;28;20436;-78
2021/05/20 04:19:04;;;;;;;64.10;25.80;;;9.70;93.60;;;;;;4992310;28;20781;-78
2021/05/20 04:21:31;;;;;;;56.30;25.33;;;9.60;93.10;;;;;;4979445;28;20055;-78
2021/05/20 04:23:56;;;;;;;50.75;22.15;;;9.60;93.70;;;;;;4962895;28;20040;-78
2021/05/20 04:26:22;;;;;;;83.15;35.28;;;9.70;93.50;;;;;;4973797;28;20038;-77
2021/05/20 04:28:48;;;;;;;66.50;29.73;;;9.60;93.20;;;;;;4981497;28;20674;-78
2021/05/20 04:31:13;;;;;;;67.45;29.05;;;9.60;93.50;;;;;;4962708;28;20438;-78
2021/05/20 04:33:40;;;;;;;73.80;33.28;;;9.70;93.40;;;;;;4977730;28;20030;-78
2021/05/20 04:36:06;;;;;;;91.22;39.83;;;9.70;93.40;;;;;;4992120;28;20053;-79
2021/05/20 04:38:32;;;;;;;60.75;26.15;;;9.70;93.60;;;;;;5001615;28;20033;-78
2021/05/20 04:40:57;;;;;;;49.78;23.80;;;9.70;93.60;;;;;;4976400;28;20026;-78
2021/05/20 04:43:23;;;;;;;69.85;29.80;;;9.90;93.50;;;;;;4972169;28;20042;-77
2021/05/20 04:45:48;;;;;;;55.63;22.33;;;9.90;93.10;;;;;;4976721;28;20421;-77
2021/05/20 04:48:14;;;;;;;76.05;32.92;;;9.90;93.30;;;;;;4295997;28;9999626;-77
2021/05/20 04:50:41;;;;;;;58.80;28.00;;;10.00;92.80;;;;;;4964067;28;20449;-77
2021/05/20 04:53:07;;;;;;;59.33;26.35;;;10.00;92.70;;;;;;4965083;28;20045;-78
2021/05/20 04:55:32;;;;;;;80.15;36.30;;;10.10;92.80;;;;;;4980136;28;20057;-77
2021/05/20 04:57:58;;;;;;;59.17;28.08;;;10.10;93.10;;;;;;4978180;28;20030;-77
2021/05/20 05:00:23;;;;;;;64.60;28.98;;;10.10;93.10;;;;;;4977636;28;20030;-77
2021/05/20 05:02:49;;;;;;;97.20;46.20;;;10.10;92.80;;;;;;4997729;28;20109;-78
2021/05/20 05:05:14;;;;;;;62.58;28.63;;;10.20;93.20;;;;;;4970094;28;20026;-77
2021/05/20 05:07:40;;;;;;;80.35;38.97;;;10.20;92.80;;;;;;4982374;28;20084;-77
2021/05/20 05:10:06;;;;;;;60.60;29.17;;;10.20;92.60;;;;;;4977662;28;20047;-78
2021/05/20 05:12:32;;;;;;;94.57;44.72;;;10.20;92.60;;;;;;4982018;28;20033;-77
2021/05/20 05:14:57;;;;;;;94.88;45.60;;;10.20;92.70;;;;;;4961655;28;20038;-77
2021/05/20 05:17:24;;;;;;;75.60;35.85;;;10.30;92.60;;;;;;4980462;28;20493;-77
2021/05/20 05:19:50;;;;;;;66.00;31.75;;;10.30;92.50;;;;;;4993707;28;20034;-77
2021/05/20 05:22:15;;;;;;;70.13;32.17;;;10.40;92.50;;;;;;4997431;28;20044;-77
2021/05/20 05:24:41;;;;;;;60.35;30.58;;;10.40;93.00;;;;;;4967382;28;20038;-77
2021/05/20 05:27:07;;;;;;;71.78;38.08;;;10.50;92.90;;;;;;4962484;28;20098;-77
2021/05/20 05:29:33;;;;;;;70.60;37.85;;;10.40;93.30;;;;;;4985093;28;20458;-77
2021/05/20 05:31:59;;;;;;;68.97;36.95;;;10.50;93.00;;;;;;4955198;28;20553;-77
2021/05/20 05:34:25;;;;;;;80.60;43.83;;;10.60;93.20;;;;;;5002281;28;20710;-77
2021/05/20 05:36:51;;;;;;;70.90;38.92;;;10.60;93.00;;;;;;4997014;28;20147;-77
2021/05/20 05:39:17;;;;;;;59.08;28.88;;;10.60;92.90;;;;;;4977595;28;20101;-77
2021/05/20 05:41:42;;;;;;;67.25;35.05;;;10.70;92.90;;;;;;4987575;28;20347;-78
2021/05/20 05:44:08;;;;;;;69.78;34.53;;;10.70;92.80;;;;;;4971471;28;20446;-77
2021/05/20 05:46:34;;;;;;;83.20;42.60;;;10.60;93.20;;;;;;4967524;28;20380;-77
2021/05/20 05:49:10;;;;;;;66.40;36.13;;;10.60;93.30;;;;;;4973873;28;20113;-77
2021/05/20 05:51:37;;;;;;;64.90;32.75;;;10.70;93.20;;;;;;4978260;28;20108;-76
2021/05/20 05:54:04;;;;;;;71.38;37.65;;;10.70;93.20;;;;;;4961520;28;20100;-77
2021/05/20 05:56:29;;;;;;;65.07;32.25;;;10.70;93.40;;;;;;4983140;28;20069;-76
2021/05/20 05:58:55;;;;;;;68.72;34.35;;;10.70;93.10;;;;;;4983051;28;20531;-77
2021/05/20 06:01:20;;;;;;;72.10;37.97;;;10.70;93.50;;;;;;4998542;28;20113;-77
2021/05/20 06:03:46;;;;;;;73.60;37.85;;;10.80;93.40;;;;;;4974654;28;20129;-76
2021/05/20 06:06:11;;;;;;;70.57;35.25;;;10.90;93.40;;;;;;4992210;28;20181;-77
2021/05/20 06:08:37;;;;;;;61.35;32.95;;;11.00;93.50;;;;;;4960220;28;20044;-77
2021/05/20 06:11:02;;;;;;;64.88;35.22;;;11.10;93.20;;;;;;4967410;28;20113;-77
2021/05/20 06:13:28;;;;;;;59.50;30.98;;;11.20;93.30;;;;;;4985188;28;20557;-77
2021/05/20 06:15:54;;;;;;;55.13;29.30;;;11.40;93.00;;;;;;4975764;28;20405;-77
2021/05/20 06:18:19;;;;;;;58.38;31.20;;;11.30;92.70;;;;;;4988630;28;20033;-77
2021/05/20 06:20:45;;;;;;;59.05;31.15;;;11.30;93.20;;;;;;4977625;28;20057;-77
2021/05/20 06:23:10;;;;;;;55.42;30.17;;;11.30;93.10;;;;;;4989805;28;20674;-77
2021/05/20 06:25:36;;;;;;;62.80;33.60;;;11.60;93.00;;;;;;4974365;28;20472;-77
2021/05/20 06:28:06;;;;;;;57.28;31.20;;;11.60;93.10;;;;;;4980451;28;20494;-77
2021/05/20 06:30:31;;;;;;;61.20;33.97;;;11.70;92.90;;;;;;4981912;28;20034;-77
2021/05/20 06:32:57;;;;;;;60.50;32.50;;;11.70;92.90;;;;;;4978104;28;20026;-77
2021/05/20 06:35:22;;;;;;;54.25;30.33;;;11.70;93.50;;;;;;4980372;28;20497;-77
2021/05/20 06:37:49;;;;;;;61.58;32.97;;;11.80;93.00;;;;;;4977141;28;20038;-77
2021/05/20 06:40:15;;;;;;;57.28;30.23;;;12.00;93.50;;;;;;4980512;28;20030;-77
2021/05/20 06:42:40;;;;;;;51.80;27.70;;;12.00;92.90;;;;;;4969067;28;20108;-77
2021/05/20 06:45:06;;;;;;;54.05;28.40;;;12.20;92.70;;;;;;4978449;28;20074;-77
2021/05/20 06:47:32;;;;;;;52.67;27.83;;;12.30;92.70;;;;;;4969249;28;20117;-77
2021/05/20 06:49:57;;;;;;;52.65;28.35;;;12.10;92.80;;;;;;4964796;28;20610;-77
2021/05/20 06:52:23;;;;;;;53.67;29.23;;;12.10;93.30;;;;;;4966571;28;20470;-77
2021/05/20 06:54:49;;;;;;;47.53;25.73;;;12.20;93.00;;;;;;4947254;28;20703;-77
2021/05/20 07:00:03;;;;;;;48.53;28.92;;;12.30;92.80;;;;;;4628625;28;10000848;-78
2021/05/20 07:02:29;;;;;;;50.33;27.17;;;12.50;92.40;;;;;;4974468;28;20034;-77
2021/05/20 07:04:56;;;;;;;50.78;27.55;;;12.70;92.60;;;;;;4994646;28;20080;-78
2021/05/20 07:07:21;;;;;;;46.05;23.60;;;12.70;92.20;;;;;;4976039;28;20536;-78
2021/05/20 07:09:47;;;;;;;50.30;28.52;;;12.60;92.40;;;;;;4974349;28;20149;-77
2021/05/20 07:12:13;;;;;;;58.42;35.45;;;13.00;92.40;;;;;;4974702;28;20061;-78
2021/05/20 07:14:39;;;;;;;45.70;25.95;;;13.40;93.10;;;;;;4978240;28;20037;-78
2021/05/20 07:17:05;;;;;;;46.35;25.75;;;13.70;92.10;;;;;;4978905;28;20523;-78
2021/05/20 07:19:31;;;;;;;57.40;29.40;;;13.60;91.70;;;;;;4972978;28;20030;-78
2021/05/20 07:21:56;;;;;;;57.30;31.88;;;13.70;92.80;;;;;;4975111;28;20037;-77
2021/05/20 07:24:22;;;;;;;61.10;33.47;;;13.70;92.70;;;;;;4971960;28;20117;-78
2021/05/20 07:26:47;;;;;;;59.75;31.17;;;14.00;93.00;;;;;;4963035;28;20038;-78
2021/05/20 07:29:13;;;;;;;63.40;36.08;;;14.00;92.50;;;;;;4986701;28;20088;-78
2021/05/20 07:31:39;;;;;;;62.85;34.15;;;14.20;93.80;;;;;;4980149;28;20390;-78
2021/05/20 07:34:05;;;;;;;45.90;26.98;;;14.20;93.00;;;;;;4973919;28;20046;-78
2021/05/20 07:36:31;;;;;;;44.72;25.83;;;14.30;92.60;;;;;;4973713;28;20049;-77
2021/05/20 07:38:57;;;;;;;47.05;26.95;;;14.00;91.10;;;;;;4976277;28;20033;-78
2021/05/20 07:41:22;;;;;;;45.10;27.30;;;13.80;91.50;;;;;;4975909;28;20097;-78
2021/05/20 07:43:48;;;;;;;46.38;27.73;;;14.00;93.10;;;;;;4990899;28;20030;-77
2021/05/20 07:46:13;;;;;;;40.25;26.83;;;14.00;92.70;;;;;;4978735;28;20545;-77
2021/05/20 07:48:39;;;;;;;36.67;23.65;;;13.80;91.80;;;;;;4980345;28;20038;-78
2021/05/20 07:51:06;;;;;;;36.13;22.58;;;13.80;91.20;;;;;;4977144;28;20030;-77
2021/05/20 07:53:31;;;;;;;39.10;24.27;;;14.00;91.80;;;;;;4992515;28;20759;-78
2021/05/20 07:55:57;;;;;;;36.63;23.42;;;14.20;92.40;;;;;;4993394;28;20045;-78
2021/05/20 07:58:23;;;;;;;21.25;11.43;;;13.90;92.60;;;;;;4977217;28;20246;-78
2021/05/20 08:00:48;;;;;;;38.95;26.13;;;14.20;91.10;;;;;;4992297;28;20085;-78
2021/05/20 08:11:21;;;;;;;37.15;25.33;;;14.70;93.40;;;;;;4991839;28;20036;-78
2021/05/20 08:13:47;;;;;;;33.88;21.20;;;14.60;91.70;;;;;;4973463;28;20030;-77
2021/05/20 08:16:12;;;;;;;37.50;25.20;;;14.20;91.70;;;;;;4973662;28;20088;-77
2021/05/20 08:18:38;;;;;;;34.35;21.15;;;14.40;92.40;;;;;;4957815;28;20030;-78
2021/05/20 08:21:04;;;;;;;39.08;25.13;;;14.70;91.50;;;;;;4979229;28;20381;-78
2021/05/20 08:23:31;;;;;;;35.55;22.60;;;14.80;92.00;;;;;;4966254;28;20034;-77
2021/05/20 08:25:57;;;;;;;30.05;17.88;;;14.60;91.30;;;;;;4980000;28;20042;-78
2021/05/20 08:28:22;;;;;;;33.05;23.05;;;14.10;90.60;;;;;;4979284;28;20029;-79
2021/05/20 08:30:48;;;;;;;32.63;20.77;;;13.70;90.90;;;;;;4981817;28;20433;-79
2021/05/20 08:33:14;;;;;;;36.88;23.75;;;13.60;90.80;;;;;;4981955;28;20038;-78
2021/05/20 08:35:39;;;;;;;38.13;21.17;;;13.70;92.10;;;;;;4998846;28;20132;-79
2021/05/20 08:38:05;;;;;;;34.58;21.48;;;14.30;91.50;;;;;;4981773;28;20044;-79
2021/05/20 08:40:31;;;;;;;30.27;18.63;;;14.60;90.30;;;;;;4961166;28;20046;-79
2021/05/20 08:42:56;;;;;;;35.45;19.65;;;14.70;90.10;;;;;;4963465;28;20030;-79
2021/05/20 08:45:26;;;;;;;37.28;24.20;;;14.70;90.20;;;;;;4980615;28;20038;-79
2021/05/20 08:47:53;;;;;;;35.63;22.55;;;15.20;91.00;;;;;;4996653;28;20030;-79
2021/05/20 08:50:19;;;;;;;37.75;25.95;;;15.70;91.70;;;;;;4964430;28;20457;-79
2021/05/20 08:52:45;;;;;;;39.65;23.83;;;15.70;90.90;;;;;;4976293;28;20030;-79
2021/05/20 08:55:15;;;;;;;41.47;26.13;;;14.80;90.10;;;;;;4968840;28;20034;-79
2021/05/20 08:57:40;;;;;;;39.22;21.63;;;15.40;92.10;;;;;;4999413;28;20042;-79
2021/05/20 09:00:08;;;;;;;36.47;21.92;;;15.00;89.00;;;;;;4990148;28;20556;-78
2021/05/20 09:02:34;;;;;;;41.35;23.70;;;15.00;89.00;;;;;;4970097;28;20040;-79
2021/05/20 09:05:10;;;;;;;45.55;25.92;;;14.80;90.30;;;;;;4985512;28;20025;-79
2021/05/20 09:07:37;;;;;;;37.65;23.52;;;15.20;91.30;;;;;;4986289;28;20379;-79
2021/05/20 09:10:25;;;;;;;37.92;24.02;;;16.20;90.80;;;;;;4979470;28;20533;-79
2021/05/20 09:12:58;;;;;;;38.58;23.05;;;16.30;89.40;;;;;;4997286;28;20169;-79
2021/05/20 09:15:29;;;;;;;36.63;23.25;;;16.20;88.20;;;;;;4981074;28;20132;-79
2021/05/20 09:18:01;;;;;;;39.45;22.52;;;16.00;89.50;;;;;;4985761;28;20050;-79
2021/05/20 09:20:26;;;;;;;29.33;17.08;;;15.30;88.50;;;;;;4984891;28;20555;-79
2021/05/20 09:23:05;;;;;;;42.95;24.90;;;15.70;88.40;;;;;;4982448;28;20023;-80
2021/05/20 09:25:32;;;;;;;40.83;24.52;;;15.70;89.20;;;;;;4983894;28;20041;-79
2021/05/20 09:27:57;;;;;;;41.45;25.98;;;15.90;87.20;;;;;;4977084;28;20042;-79
2021/05/20 09:30:24;;;;;;;40.72;24.23;;;15.60;89.10;;;;;;4967405;28;20031;-79
2021/05/20 09:32:53;;;;;;;39.35;22.73;;;15.80;89.10;;;;;;4980777;28;20030;-79
2021/05/20 09:35:27;;;;;;;41.22;24.85;;;16.20;87.20;;;;;;4995165;28;20061;-79
2021/05/20 09:37:53;;;;;;;38.25;23.83;;;16.40;85.90;;;;;;4970323;28;20046;-80
2021/05/20 09:40:24;;;;;;;36.50;20.30;;;16.80;88.90;;;;;;4986206;28;20038;-80
2021/05/20 09:42:49;;;;;;;34.88;21.92;;;17.10;85.10;;;;;;4980968;28;20444;-79
2021/05/20 09:45:20;;;;;;;30.77;19.50;;;17.50;85.30;;;;;;4970125;28;20030;-79
2021/05/20 09:47:46;;;;;;;32.75;20.65;;;18.30;86.80;;;;;;4961047;28;20050;-79
2021/05/20 09:50:16;;;;;;;32.50;20.42;;;18.40;83.60;;;;;;4995653;28;20039;-80
2021/05/20 09:52:42;;;;;;;35.03;22.65;;;18.80;88.60;;;;;;5000163;28;20030;-79
2021/05/20 09:55:23;;;;;;;27.95;20.33;;;19.00;89.80;;;;;;4970184;28;20079;-78
2021/05/20 09:57:49;;;;;;;29.00;20.38;;;19.30;88.20;;;;;;4971257;28;20027;-78
2021/05/20 10:00:16;;;;;;;28.65;19.67;;;19.50;85.20;;;;;;4979245;28;21506;-78
2021/05/20 10:02:42;;;;;;;28.17;17.83;;;19.50;88.10;;;;;;4985838;28;20379;-78
2021/05/20 10:05:30;;;;;;;24.17;16.70;;;19.70;87.60;;;;;;4979133;28;20562;-78
2021/05/20 10:07:57;;;;;;;29.13;18.10;;;19.30;85.20;;;;;;5000652;28;20037;-78
2021/05/20 10:10:22;;;;;;;25.92;17.08;;;19.40;85.30;;;;;;4984577;28;20054;-78
2021/05/20 10:12:48;;;;;;;24.60;17.63;;;19.00;84.40;;;;;;4975260;28;20068;-78
2021/05/20 10:15:15;;;;;;;27.23;16.88;;;19.40;82.90;;;;;;4991240;28;20031;-78
2021/05/20 10:17:41;;;;;;;25.35;17.60;;;20.20;89.40;;;;;;4979750;28;20029;-78
2021/05/20 10:20:08;;;;;;;23.15;16.02;;;21.10;86.20;;;;;;4984700;28;20456;-78
2021/05/20 10:22:34;;;;;;;22.05;15.00;;;21.20;80.60;;;;;;4981574;28;20030;-78
2021/05/20 10:24:59;;;;;;;21.20;16.17;;;21.20;80.10;;;;;;4989540;28;20088;-78
2021/05/20 10:27:25;;;;;;;22.27;14.88;;;21.30;77.70;;;;;;4994214;28;20536;-78
2021/05/20 10:29:51;;;;;;;22.08;13.88;;;21.70;83.40;;;;;;4993023;28;20057;-78
2021/05/20 10:32:16;;;;;;;21.05;15.23;;;22.10;79.20;;;;;;4980106;28;20125;-79
2021/05/20 10:35:02;;;;;;;20.42;14.90;;;22.20;78.10;;;;;;4982913;28;20038;-79
2021/05/20 10:37:42;;;;;;;20.38;15.07;;;22.30;79.00;;;;;;4968804;28;20323;-79
2021/05/20 10:40:11;;;;;;;22.25;14.52;;;22.90;85.10;;;;;;4976147;28;20031;-79
2021/05/20 10:42:43;;;;;;;18.42;13.50;;;23.30;78.50;;;;;;4995476;28;20053;-79
2021/05/20 10:45:16;;;;;;;20.55;14.75;;;23.20;78.30;;;;;;4990434;28;20038;-79
2021/05/20 10:48:05;;;;;;;15.65;11.23;;;23.30;80.80;;;;;;4981547;28;20403;-80
2021/05/20 10:50:56;;;;;;;15.73;10.85;;;24.00;80.40;;;;;;4994363;28;20026;-79
2021/05/20 10:53:46;;;;;;;14.90;8.27;;;24.50;76.30;;;;;;4994319;28;20034;-80
2021/05/20 10:56:12;;;;;;;13.48;10.10;;;23.40;68.40;;;;;;4995591;28;20030;-80
2021/05/20 10:58:37;;;;;;;10.63;7.05;;;23.80;68.50;;;;;;5000202;28;20092;-80
2021/05/20 11:01:04;;;;;;;12.68;9.27;;;24.20;71.10;;;;;;4997224;28;20509;-80
2021/05/20 11:03:48;;;;;;;12.35;9.35;;;24.50;74.80;;;;;;4978394;28;20098;-81
2021/05/20 11:06:13;;;;;;;10.32;8.65;;;24.40;71.10;;;;;;4994132;28;20026;-81
2021/05/20 11:08:59;;;;;;;9.52;7.63;;;24.50;73.10;;;;;;4981596;28;20494;-81
2021/05/20 11:11:31;;;;;;;10.70;8.15;;;24.60;70.90;;;;;;4993988;28;20079;-81
2021/05/20 11:14:01;;;;;;;8.85;7.00;;;24.40;67.40;;;;;;4993927;28;20033;-81
2021/05/20 11:16:33;;;;;;;8.55;6.88;;;25.10;73.60;;;;;;4979569;28;20050;-82
2021/05/20 11:19:22;;;;;;;13.77;7.95;;;25.30;71.10;;;;;;4972603;28;20449;-81
2021/05/20 11:22:07;;;;;;;8.98;6.30;;;25.10;64.80;;;;;;4993180;28;20030;-79
2021/05/20 11:24:41;;;;;;;7.03;6.15;;;24.80;68.00;;;;;;4998557;28;20041;-80
2021/05/20 11:27:08;;;;;;;7.32;6.18;;;24.90;70.60;;;;;;4279141;28;10000568;-78
2021/05/20 11:29:35;;;;;;;7.70;6.90;;;25.00;64.40;;;;;;4974688;28;20540;-81
2021/05/20 11:32:23;;;;;;;7.00;4.93;;;24.50;66.70;;;;;;4973469;28;20095;-81
2021/05/20 11:35:38;;;;;;;6.30;5.22;;;24.40;64.40;;;;;;4961915;28;20390;-81
2021/05/20 11:37:38;;;;;;;15.95;8.35;;;24.70;66.60;;;;;;4968987;28;20453;-81
2021/05/20 11:40:05;;;;;;;5.63;4.97;;;24.20;62.20;;;;;;4986873;28;20044;-81
2021/05/20 11:42:32;;;;;;;7.32;4.70;;;24.20;69.20;;;;;;4977835;28;20038;-81
2021/05/20 11:45:01;;;;;;;4.53;4.13;;;24.40;67.90;;;;;;4990998;28;20041;-81
2021/05/20 11:47:27;;;;;;;6.43;5.03;;;24.70;67.80;;;;;;4960889;28;20485;-81
2021/05/20 11:49:53;;;;;;;6.13;4.88;;;24.10;59.30;;;;;;4961821;28;20118;-82
2021/05/20 11:52:19;;;;;;;6.00;4.40;;;23.70;59.10;;;;;;4991478;28;20180;-82
2021/05/20 11:54:46;;;;;;;7.05;6.03;;;24.10;58.80;;;;;;4975181;28;20069;-80
2021/05/20 11:57:13;;;;;;;9.05;6.07;;;24.20;59.60;;;;;;4960701;28;20219;-82
2021/05/20 11:59:46;;;;;;;8.98;6.20;;;25.10;68.30;;;;;;4993842;28;20463;-83
2021/05/20 12:02:11;;;;;;;3.83;3.28;;;25.40;67.40;;;;;;4977197;28;20113;-83
2021/05/20 12:04:37;;;;;;;4.35;3.95;;;24.70;56.60;;;;;;4995830;28;20164;-83
2021/05/20 12:07:03;;;;;;;4.75;3.83;;;25.50;62.10;;;;;;4992190;28;20385;-82
2021/05/20 12:09:28;;;;;;;6.30;4.07;;;25.10;55.40;;;;;;4973529;28;20037;-82
2021/05/20 12:11:54;;;;;;;5.13;3.33;;;25.40;57.90;;;;;;4975154;28;20022;-81
2021/05/20 12:14:29;;;;;;;4.95;3.05;;;25.80;62.00;;;;;;4957909;28;20103;-82
2021/05/20 12:17:08;;;;;;;6.03;5.22;;;25.80;59.90;;;;;;4991739;28;20414;-82
2021/05/20 12:19:38;;;;;;;3.60;3.17;;;26.20;61.90;;;;;;4990088;28;20510;-83
2021/05/20 12:22:04;;;;;;;6.72;5.25;;;26.50;59.50;;;;;;4975334;28;20065;-80
2021/05/20 12:24:33;;;;;;;6.75;3.78;;;26.50;59.60;;;;;;4998616;28;20069;-82
2021/05/20 12:27:30;;;;;;;5.20;3.63;;;26.50;56.70;;;;;;4990474;28;20126;-82
2021/05/20 12:29:57;;;;;;;4.40;3.65;;;26.40;58.50;;;;;;4990571;28;20088;-80
2021/05/20 12:32:30;;;;;;;4.00;3.33;;;26.20;58.70;;;;;;4991386;28;20188;-82
2021/05/20 12:35:26;;;;;;;3.97;2.95;;;26.00;60.90;;;;;;4989742;28;20043;-82
2021/05/20 12:38:12;;;;;;;4.05;2.85;;;25.80;59.60;;;;;;4974930;28;20493;-83
2021/05/20 12:40:45;;;;;;;3.80;2.78;;;25.80;59.80;;;;;;4990434;28;20034;-81
2021/05/20 12:43:15;;;;;;;4.22;2.72;;;25.80;56.80;;;;;;4957019;28;20446;-81
2021/05/20 12:45:45;;;;;;;3.67;3.13;;;25.70;55.10;;;;;;4977185;28;20038;-81
2021/05/20 12:48:39;;;;;;;7.38;3.42;;;25.70;56.80;;;;;;4978824;28;20035;-82